»·PEaware :: AAL420 KLAX-KLAS

AAL420 :: KLAX-KLAS

FLIGHT INFORMATION

Flight Status: Arrived
Operator:
American Airlines
More flights by this operator :: More flights under this callsign
Pilot: Jordan Sabot (14404)
Aircraft: BOEING 737-800
(B738)
More flights by this aircraft type
Origin: KLAX Los Angeles Intl
United States
Destination: KLAS McCarran Intl
United States
More flights between these airports :: More routes between these airports
Route: +ORCKA1 MISEN KEPEC4
File this flight plan on PilotEdge
Remarks:
Altitude:
(Current/Filed)
25,000ft
Speed:
(Current/Filed)
470kts
Departed: 09-Jun-17 11:38 AM
Arrived: 09-Jun-17 12:20 PM
Distance/Time
Traveled:
205nm/0:42
Distance/Time
To Go:
Arrived

Flight Plot

Page will automatically refresh every two minutes.

Flight plan parsing failed; only flown route is shown


Map Options




Map Legend


Flown Route
Filed Route
Departure Airport
Arrival Airport
Navaid (VOR, NDB)
Fix

Horizontal Profiles

Position Reports

Time Latitude Longitude Heading Altitude Ground
Speed
09-Jun-17 11:24 33.941151 -118.400211 95 132ft 0kts
09-Jun-17 11:25 33.941151 -118.400211 95 132ft 0kts
09-Jun-17 11:26 33.941151 -118.400211 95 132ft 0kts
09-Jun-17 11:27 33.941151 -118.400211 95 132ft 0kts
09-Jun-17 11:28 33.941151 -118.400211 95 132ft 0kts
09-Jun-17 11:29 33.941151 -118.400211 95 132ft 0kts
09-Jun-17 11:30 33.941170 -118.400473 95 133ft 3kts
09-Jun-17 11:31 33.941565 -118.400993 185 132ft 0kts
09-Jun-17 11:32 33.941565 -118.400993 185 132ft 0kts
09-Jun-17 11:33 33.941446 -118.400999 179 132ft 1kts
09-Jun-17 11:34 33.940172 -118.400652 169 133ft 0kts
09-Jun-17 11:35 33.939455 -118.400540 173 133ft 7kts
09-Jun-17 11:36 33.938923 -118.398637 82 133ft 9kts
09-Jun-17 11:37 33.939450 -118.393506 83 132ft 21kts
09-Jun-17 11:38 33.940349 -118.384743 83 133ft 29kts
09-Jun-17 11:39 33.940092 -118.380017 175 133ft 8kts
09-Jun-17 11:40 33.938021 -118.397462 262 136ft 150kts
09-Jun-17 11:41 33.930548 -118.463061 250 1574ft 244kts
09-Jun-17 11:42 33.904589 -118.540744 247 3615ft 256kts
09-Jun-17 11:43 33.875933 -118.619075 223 5569ft 259kts
09-Jun-17 11:44 33.823532 -118.587333 90 7695ft 293kts
09-Jun-17 11:45 33.872541 -118.508477 44 9793ft 313kts
09-Jun-17 11:46 33.934869 -118.433188 43 11792ft 334kts
09-Jun-17 11:47 33.989473 -118.336924 58 13532ft 375kts
09-Jun-17 11:48 34.047403 -118.230780 55 15436ft 410kts
09-Jun-17 11:49 34.113533 -118.113964 55 17370ft 448kts
09-Jun-17 11:50 34.183490 -117.989915 55 19220ft 463kts
09-Jun-17 11:51 34.256189 -117.860515 55 21100ft 479kts
09-Jun-17 11:52 34.331077 -117.726664 56 22995ft 492kts
09-Jun-17 11:53 34.410547 -117.591451 54 24885ft 505kts
09-Jun-17 11:54 34.492754 -117.453390 54 24999ft 506kts
09-Jun-17 11:55 34.573863 -117.316732 55 24990ft 506kts
09-Jun-17 11:56 34.655119 -117.179262 55 24987ft 506kts
09-Jun-17 11:57 34.736092 -117.041718 55 24890ft 506kts
09-Jun-17 11:58 34.817062 -116.903720 55 24634ft 504kts
09-Jun-17 11:59 34.884267 -116.788685 55 24416ft 502kts
09-Jun-17 12:00 34.976577 -116.627330 56 24130ft 501kts
09-Jun-17 12:01 35.041615 -116.511944 56 23951ft 498kts
09-Jun-17 12:02 35.137824 -116.359992 45 22543ft 472kts
09-Jun-17 12:03 35.224324 -116.251037 45 20896ft 436kts
09-Jun-17 12:04 35.292892 -116.164859 44 19585ft 420kts
09-Jun-17 12:05 35.386387 -116.047018 44 17837ft 411kts
09-Jun-17 12:06 35.451350 -115.964953 44 16700ft 401kts
09-Jun-17 12:07 35.527715 -115.868160 44 15410ft 390kts
09-Jun-17 12:08 35.598495 -115.778166 44 14098ft 362kts
09-Jun-17 12:09 35.665541 -115.692715 44 13022ft 336kts
09-Jun-17 12:10 35.731289 -115.608692 44 13017ft 345kts
09-Jun-17 12:11 35.817810 -115.575231 0 13008ft 332kts
09-Jun-17 12:12 35.909267 -115.567484 357 12994ft 332kts
09-Jun-17 12:13 35.982009 -115.509122 61 12231ft 329kts
09-Jun-17 12:14 36.018552 -115.411662 68 11300ft 304kts
09-Jun-17 12:15 36.025265 -115.311608 97 10248ft 293kts
09-Jun-17 12:16 36.019163 -115.214348 98 9040ft 280kts
09-Jun-17 12:17 36.012888 -115.119301 94 7590ft 277kts
09-Jun-17 12:18 36.062683 -115.056685 29 6435ft 268kts
09-Jun-17 12:19 36.127549 -115.041901 310 4869ft 251kts
09-Jun-17 12:20 36.159046 -115.103571 257 3683ft 192kts
09-Jun-17 12:21 36.122797 -115.138872 206 2574ft 163kts
09-Jun-17 12:22 36.087068 -115.160139 206 2148ft 36kts

Navigation Log

Ident Type
Flight plan parsing failed, navigation log unavailable